createdAt,value
2019-05-02T00:00:42.192Z,10.31
2019-05-02T00:03:11.648Z,10.38
2019-05-02T00:05:41.048Z,10.45
2019-05-02T00:08:10.835Z,10.09
2019-05-02T00:10:41.619Z,10.08
2019-05-02T00:13:11.490Z,10.21
2019-05-02T00:15:41.094Z,10.00
2019-05-02T00:18:11.538Z,9.90
2019-05-02T00:20:41.552Z,10.11
2019-05-02T00:23:11.437Z,10.01
2019-05-02T00:25:41.314Z,9.69
2019-05-02T00:28:12.314Z,9.93
2019-05-02T00:30:41.661Z,9.93
2019-05-02T00:33:10.974Z,9.96
2019-05-02T00:35:40.812Z,9.96
2019-05-02T00:38:11.705Z,9.73
2019-05-02T00:40:40.991Z,9.73
2019-05-02T00:43:10.532Z,9.70
2019-05-02T00:45:40.337Z,9.71
2019-05-02T00:48:11.540Z,9.83
2019-05-02T00:50:45.427Z,9.84
2019-05-02T00:53:13.468Z,9.92
2019-05-02T00:55:43.178Z,9.77
2019-05-02T00:58:13.185Z,9.75
2019-05-02T01:00:44.313Z,9.70
2019-05-02T01:03:16.256Z,9.61
2019-05-02T01:05:45.546Z,9.55
2019-05-02T01:08:14.868Z,9.50
2019-05-02T01:10:44.550Z,9.53
2019-05-02T01:13:14.731Z,9.45
2019-05-02T01:15:45.970Z,9.54
2019-05-02T01:18:15.498Z,9.56
2019-05-02T01:20:45.188Z,9.50
2019-05-02T01:23:14.546Z,9.43
2019-05-02T01:25:47.355Z,9.35
2019-05-02T01:28:19.509Z,9.26
2019-05-02T01:30:50.551Z,9.32
2019-05-02T01:33:21.529Z,9.34
2019-05-02T01:35:54.934Z,9.34
2019-05-02T01:38:31.128Z,9.39
2019-05-02T01:40:56.999Z,9.30
2019-05-02T01:43:28.899Z,9.23
2019-05-02T01:45:59.398Z,9.13
2019-05-02T01:48:29.473Z,9.20
2019-05-02T01:50:58.785Z,9.05
2019-05-02T01:53:34.030Z,9.04
2019-05-02T01:55:59.574Z,8.93
2019-05-02T01:58:29.095Z,8.95
2019-05-02T02:00:58.968Z,9.07
2019-05-02T02:03:28.273Z,8.87
2019-05-02T02:05:57.671Z,8.81
2019-05-02T02:08:31.967Z,8.72
2019-05-02T02:10:58.336Z,8.82
2019-05-02T02:13:31.323Z,8.70
2019-05-02T02:16:00.115Z,8.52
2019-05-02T02:18:31.541Z,8.52
2019-05-02T02:21:02.588Z,8.63
2019-05-02T02:23:39.592Z,8.54
2019-05-02T02:26:12.024Z,8.59
2019-05-02T02:28:41.907Z,8.56
2019-05-02T02:31:11.330Z,8.65
2019-05-02T02:33:47.525Z,8.68
2019-05-02T02:36:11.893Z,8.70
2019-05-02T02:38:41.460Z,8.89
2019-05-02T02:41:13.059Z,8.86
2019-05-02T02:43:43.248Z,8.85
2019-05-02T02:46:14.271Z,8.93
2019-05-02T02:48:43.828Z,8.80
2019-05-02T02:51:22.244Z,8.83
2019-05-02T02:53:44.945Z,8.75
2019-05-02T02:56:14.260Z,8.69
2019-05-02T02:58:46.355Z,8.60
2019-05-02T03:01:27.788Z,8.42
2019-05-02T03:03:46.001Z,8.44
2019-05-02T03:06:15.419Z,8.43
2019-05-02T03:08:48.870Z,8.24
2019-05-02T03:11:23.438Z,8.23
2019-05-02T03:14:09.592Z,8.30
2019-05-02T03:16:46.201Z,8.44
2019-05-02T03:19:14.837Z,8.36
2019-05-02T03:21:44.051Z,8.39
2019-05-02T03:24:13.682Z,8.30
2019-05-02T03:26:48.781Z,8.30
2019-05-02T03:29:14.882Z,8.33
2019-05-02T03:31:44.529Z,8.34
2019-05-02T03:34:13.931Z,8.22
2019-05-02T03:36:43.810Z,8.21
2019-05-02T03:39:17.177Z,8.26
2019-05-02T03:41:44.279Z,8.28
2019-05-02T03:44:24.756Z,8.25
2019-05-02T03:46:45.084Z,8.24
2019-05-02T03:49:14.929Z,8.22
2019-05-02T03:51:44.527Z,8.19
2019-05-02T03:54:13.846Z,8.27
2019-05-02T03:56:44.771Z,8.32
2019-05-02T03:59:14.601Z,8.27
2019-05-02T04:01:44.146Z,8.21
2019-05-02T04:04:14.299Z,8.19
2019-05-02T04:06:44.683Z,8.38
2019-05-02T04:09:32.068Z,8.24
2019-05-02T04:12:00.432Z,8.25
2019-05-02T04:14:37.855Z,8.25
2019-05-02T04:17:01.388Z,8.28
2019-05-02T04:19:34.875Z,8.16
2019-05-02T04:22:08.425Z,8.34
2019-05-02T04:24:35.112Z,8.32
2019-05-02T04:27:04.811Z,8.40
2019-05-02T04:29:34.219Z,8.33
2019-05-02T04:32:11.494Z,8.42
2019-05-02T04:34:34.698Z,8.52
2019-05-02T04:37:04.319Z,8.52
2019-05-02T04:39:33.805Z,8.76
2019-05-02T04:42:12.985Z,8.72
2019-05-02T04:44:40.920Z,8.73
2019-05-02T04:47:11.110Z,8.90
2019-05-02T04:49:39.163Z,8.89
2019-05-02T04:52:11.638Z,8.77
2019-05-02T04:54:39.040Z,8.88
2019-05-02T04:57:08.834Z,9.00
2019-05-02T04:59:39.438Z,9.03
2019-05-02T05:02:09.532Z,9.06
2019-05-02T05:04:46.095Z,9.18
2019-05-02T05:07:09.829Z,9.23
2019-05-02T05:09:40.343Z,9.16
2019-05-02T05:12:09.787Z,9.25
2019-05-02T05:14:43.027Z,9.30
2019-05-02T05:17:10.096Z,9.42
2019-05-02T05:19:39.390Z,9.54
2019-05-02T05:22:11.745Z,9.40
2019-05-02T05:24:42.459Z,9.55
2019-05-02T05:27:13.378Z,9.55
2019-05-02T05:29:45.900Z,9.45
2019-05-02T05:32:14.039Z,9.48
2019-05-02T05:34:43.355Z,9.48
2019-05-02T05:37:13.527Z,9.57
2019-05-02T05:39:47.571Z,9.57
2019-05-02T05:42:13.917Z,9.54
2019-05-02T05:44:43.208Z,9.93
2019-05-02T05:47:19.730Z,9.93
2019-05-02T05:49:47.714Z,10.12
2019-05-02T05:52:18.117Z,9.92
2019-05-02T05:54:47.500Z,10.08
2019-05-02T05:57:20.967Z,10.09
2019-05-02T05:59:48.384Z,10.41
2019-05-02T06:02:18.528Z,10.42
2019-05-02T06:04:50.265Z,10.18
2019-05-02T06:07:20.140Z,10.14
2019-05-02T06:09:49.549Z,10.35
2019-05-02T06:12:18.903Z,10.42
2019-05-02T06:14:48.452Z,10.47
2019-05-02T06:17:17.810Z,10.21
2019-05-02T06:19:48.292Z,10.02
2019-05-02T06:22:24.666Z,10.10
2019-05-02T06:24:50.857Z,10.06
2019-05-02T06:27:20.771Z,10.14
2019-05-02T06:29:56.170Z,10.12
2019-05-02T06:32:22.509Z,10.28
2019-05-02T06:34:51.846Z,10.18
2019-05-02T06:37:21.450Z,10.38
2019-05-02T06:39:50.817Z,10.19
2019-05-02T06:42:20.144Z,10.18
2019-05-02T06:44:49.476Z,9.93
2019-05-02T06:47:19.052Z,9.84
2019-05-02T06:49:48.391Z,10.06
2019-05-02T06:52:17.770Z,10.19
2019-05-02T06:54:47.098Z,10.26
2019-05-02T06:57:19.128Z,10.21
2019-05-02T06:59:49.968Z,10.11
2019-05-02T07:02:18.951Z,10.19
2019-05-02T07:04:48.280Z,10.44
2019-05-02T07:07:17.653Z,10.33
2019-05-02T07:09:46.989Z,10.22
2019-05-02T07:12:17.018Z,10.25
2019-05-02T07:14:46.356Z,10.41
2019-05-02T07:17:36.465Z,10.33
2019-05-02T07:20:08.352Z,10.34
2019-05-02T07:22:40.450Z,10.58
2019-05-02T07:25:10.576Z,10.68
2019-05-02T07:27:39.957Z,10.84
2019-05-02T07:30:11.412Z,10.83
2019-05-02T07:32:40.752Z,10.60
2019-05-02T07:35:11.011Z,10.51
2019-05-02T07:37:44.091Z,10.68
2019-05-02T07:40:16.721Z,10.77
2019-05-02T07:42:43.225Z,10.48
2019-05-02T07:45:13.583Z,10.45
2019-05-02T07:47:42.886Z,10.21
2019-05-02T07:50:13.568Z,10.50
2019-05-02T07:52:42.952Z,10.62
2019-05-02T07:55:12.626Z,10.65
2019-05-02T07:57:41.980Z,10.44
2019-05-02T08:00:14.249Z,10.46
2019-05-02T08:02:43.840Z,10.71
2019-05-02T08:05:20.671Z,10.95
2019-05-02T08:07:46.123Z,11.13
2019-05-02T08:10:22.076Z,11.19
2019-05-02T08:12:49.071Z,11.02
2019-05-02T08:15:18.851Z,11.05
2019-05-02T08:17:53.197Z,10.92
2019-05-02T08:20:21.240Z,11.01
2019-05-02T08:22:50.833Z,11.56
2019-05-02T08:25:20.885Z,11.66
2019-05-02T08:28:01.006Z,11.63
2019-05-02T08:30:35.287Z,11.65
2019-05-02T08:33:03.051Z,11.95
2019-05-02T08:35:32.340Z,11.74
2019-05-02T08:38:01.672Z,12.00
2019-05-02T08:40:30.993Z,11.90
2019-05-02T08:43:03.690Z,11.86
2019-05-02T08:45:33.119Z,12.06
2019-05-02T08:48:05.203Z,11.88
2019-05-02T08:50:33.538Z,11.51
2019-05-02T08:53:03.082Z,11.88
2019-05-02T08:55:32.840Z,11.72
2019-05-02T08:58:06.632Z,12.00
2019-05-02T09:00:37.698Z,11.78
2019-05-02T09:03:04.960Z,11.56
2019-05-02T09:05:36.956Z,11.96
2019-05-02T09:08:09.326Z,12.01
2019-05-02T09:10:37.085Z,12.17
2019-05-02T09:13:07.539Z,11.95
2019-05-02T09:15:40.324Z,12.10
2019-05-02T09:18:08.006Z,12.45
2019-05-02T09:20:37.494Z,12.39
2019-05-02T09:23:06.893Z,12.00
2019-05-02T09:25:36.260Z,12.25
2019-05-02T09:28:05.663Z,11.93
2019-05-02T09:30:34.957Z,11.87
2019-05-02T09:33:06.461Z,11.92
2019-05-02T09:35:35.449Z,12.44
2019-05-02T09:38:04.842Z,12.79
2019-05-02T09:40:34.130Z,12.64
2019-05-02T09:43:04.766Z,12.72
2019-05-02T09:45:37.398Z,12.70
2019-05-02T09:48:08.165Z,13.03
2019-05-02T09:50:38.457Z,13.11
2019-05-02T09:53:13.139Z,13.36
2019-05-02T09:55:42.010Z,13.08
2019-05-02T09:58:10.345Z,13.16
2019-05-02T10:00:58.874Z,13.37
2019-05-02T10:03:28.620Z,13.21
2019-05-02T10:05:58.391Z,13.69
2019-05-02T10:08:27.848Z,13.86
2019-05-02T10:10:57.889Z,14.00
2019-05-02T10:13:27.204Z,13.35
2019-05-02T10:15:56.936Z,13.06
2019-05-02T10:18:30.237Z,14.02
2019-05-02T10:20:57.943Z,14.10
2019-05-02T10:23:27.404Z,14.42
2019-05-02T10:25:56.829Z,13.79
2019-05-02T10:28:26.173Z,13.88
2019-05-02T10:30:56.873Z,14.10
2019-05-02T10:33:27.993Z,15.31
2019-05-02T10:35:57.489Z,15.57
2019-05-02T10:38:26.808Z,16.38
2019-05-02T10:41:01.534Z,16.84
2019-05-02T10:43:27.373Z,16.41
2019-05-02T10:45:58.343Z,16.96
2019-05-02T10:48:28.813Z,17.39
2019-05-02T10:51:18.494Z,16.50
2019-05-02T10:53:52.715Z,16.99
2019-05-02T10:56:18.900Z,17.00
2019-05-02T10:58:48.206Z,16.45
2019-05-02T11:01:19.401Z,15.36
2019-05-02T11:03:51.696Z,14.85
2019-05-02T11:06:22.322Z,14.71
2019-05-02T11:08:52.611Z,15.28
2019-05-02T11:11:23.000Z,15.55
2019-05-02T11:14:09.147Z,15.86
2019-05-02T11:16:42.206Z,16.32
2019-05-02T11:19:13.202Z,16.31
2019-05-02T11:21:55.501Z,15.76
2019-05-02T11:24:14.414Z,16.32
2019-05-02T11:26:44.059Z,16.14
2019-05-02T11:29:13.341Z,15.93
2019-05-02T11:31:43.033Z,16.23
2019-05-02T11:34:12.960Z,16.57
2019-05-02T11:36:42.280Z,16.27
2019-05-02T11:39:19.825Z,15.79
2019-05-02T11:41:43.462Z,14.70
2019-05-02T11:44:13.075Z,14.66
2019-05-02T11:46:46.730Z,15.93
2019-05-02T11:49:13.668Z,16.19
2019-05-02T11:51:47.035Z,16.29
2019-05-02T11:54:14.164Z,16.68
2019-05-02T11:56:48.848Z,16.26
2019-05-02T11:59:15.100Z,16.64
2019-05-02T12:01:56.782Z,16.87
2019-05-02T12:04:17.357Z,16.90
2019-05-02T12:06:49.929Z,16.22
2019-05-02T12:09:18.753Z,16.74
2019-05-02T12:11:52.701Z,15.98
2019-05-02T12:14:19.253Z,16.77
2019-05-02T12:16:48.582Z,16.97
2019-05-02T12:19:17.879Z,17.04
2019-05-02T12:21:57.338Z,17.24
2019-05-02T12:24:26.744Z,17.38
2019-05-02T12:26:56.396Z,17.10
2019-05-02T12:29:25.874Z,17.12
2019-05-02T12:31:56.523Z,17.32
2019-05-02T12:34:26.131Z,17.71
2019-05-02T12:36:55.446Z,17.89
2019-05-02T12:39:24.830Z,17.80
2019-05-02T12:41:54.607Z,17.97
2019-05-02T12:44:24.418Z,17.70
2019-05-02T12:46:53.815Z,18.25
2019-05-02T12:49:27.679Z,17.60
2019-05-02T12:51:54.191Z,17.35
2019-05-02T12:54:23.526Z,17.66
2019-05-02T12:56:53.025Z,17.55
2019-05-02T12:59:22.711Z,16.58
2019-05-02T13:01:52.077Z,16.71
2019-05-02T13:04:22.983Z,17.27
2019-05-02T13:06:53.109Z,17.57
2019-05-02T13:09:23.393Z,17.57
2019-05-02T13:11:54.817Z,17.48
2019-05-02T13:14:26.146Z,17.10
2019-05-02T13:17:01.382Z,17.42
2019-05-02T13:19:39.751Z,17.51
2019-05-02T13:22:16.008Z,17.49
2019-05-02T13:24:54.030Z,17.15
2019-05-02T13:27:18.464Z,17.43
2019-05-02T13:29:49.432Z,17.43
2019-05-02T13:32:21.792Z,17.71
2019-05-02T13:35:02.318Z,17.83
2019-05-02T13:37:32.120Z,17.86
2019-05-02T13:40:03.432Z,17.43
2019-05-02T13:42:33.691Z,17.02
2019-05-02T13:45:12.690Z,17.01
2019-05-02T13:47:42.662Z,16.91
2019-05-02T13:50:12.984Z,17.23
2019-05-02T13:52:45.162Z,16.82
2019-05-02T13:55:16.387Z,17.05
2019-05-02T13:57:47.006Z,17.17
2019-05-02T14:00:24.535Z,17.39
2019-05-02T14:02:54.076Z,17.38
2019-05-02T14:05:23.754Z,17.49
2019-05-02T14:08:12.215Z,18.18
2019-05-02T14:10:43.605Z,18.45
2019-05-02T14:13:12.984Z,18.02
2019-05-02T14:15:42.660Z,18.12
2019-05-02T14:18:12.501Z,18.13
2019-05-02T14:20:42.812Z,18.38
2019-05-02T14:23:12.529Z,18.38
2019-05-02T14:25:42.579Z,18.18
2019-05-02T14:28:12.973Z,17.99
2019-05-02T14:30:46.052Z,18.04
2019-05-02T14:33:18.214Z,18.04
2019-05-02T14:35:47.625Z,18.40
2019-05-02T14:38:17.114Z,18.49
2019-05-02T14:40:54.735Z,17.90
2019-05-02T14:43:44.552Z,18.19
2019-05-02T14:46:12.907Z,18.11
2019-05-02T14:48:45.607Z,17.99
2019-05-02T14:51:16.551Z,18.19
2019-05-02T14:53:46.720Z,17.78
2019-05-02T14:56:37.585Z,17.76
2019-05-02T14:59:09.114Z,17.81
2019-05-02T15:01:37.649Z,18.09
2019-05-02T15:04:08.413Z,17.87
2019-05-02T15:06:38.297Z,18.30
2019-05-02T15:09:11.933Z,18.40
2019-05-02T15:12:03.026Z,18.21
2019-05-02T15:14:34.785Z,18.61
2019-05-02T15:17:05.570Z,18.55
2019-05-02T15:19:35.074Z,18.50
2019-05-02T15:22:04.698Z,18.57
2019-05-02T15:24:37.534Z,18.02
2019-05-02T15:27:12.269Z,17.38
2019-05-02T15:29:36.477Z,17.74
2019-05-02T15:32:25.273Z,17.70
2019-05-02T15:35:07.101Z,17.57
2019-05-02T15:37:36.642Z,17.25
2019-05-02T15:42:38.865Z,17.51
2019-05-02T15:45:08.905Z,17.39
2019-05-02T15:47:41.596Z,17.36
2019-05-02T15:50:09.394Z,17.07
2019-05-02T15:52:42.034Z,16.96
2019-05-02T15:55:11.798Z,16.58
2019-05-02T15:57:43.583Z,16.50
2019-05-02T16:00:21.719Z,16.14
2019-05-02T16:02:45.604Z,16.21
2019-05-02T16:05:15.392Z,16.05
2019-05-02T16:07:46.571Z,15.99
2019-05-02T16:10:16.490Z,16.04
2019-05-02T16:12:47.612Z,16.04
2019-05-02T16:15:21.514Z,16.08
2019-05-02T16:17:49.583Z,16.08
2019-05-02T16:20:24.090Z,15.17
2019-05-02T16:22:53.429Z,14.23
2019-05-02T16:25:24.391Z,13.84
2019-05-02T16:27:57.392Z,13.86
2019-05-02T16:30:26.045Z,13.55
2019-05-02T16:32:59.737Z,13.17
2019-05-02T16:35:33.519Z,13.05
2019-05-02T16:38:03.263Z,12.98
2019-05-02T16:40:34.913Z,12.86
2019-05-02T16:43:04.207Z,13.03
2019-05-02T16:45:34.094Z,12.95
2019-05-02T16:48:03.552Z,12.86
2019-05-02T16:50:36.799Z,13.08
2019-05-02T16:53:04.202Z,13.22
2019-05-02T16:55:33.612Z,13.22
2019-05-02T16:58:07.029Z,13.09
2019-05-02T17:00:37.159Z,13.19
2019-05-02T17:03:05.348Z,13.17
2019-05-02T17:05:39.386Z,13.18
2019-05-02T17:08:20.047Z,13.25
2019-05-02T17:10:53.738Z,13.14
2019-05-02T17:13:21.653Z,13.16
2019-05-02T17:15:52.281Z,13.08
2019-05-02T17:18:22.830Z,13.02
2019-05-02T17:20:56.648Z,13.12
2019-05-02T17:23:23.443Z,12.76
2019-05-02T17:25:52.784Z,12.69
2019-05-02T17:28:22.377Z,12.42
2019-05-02T17:30:52.485Z,12.81
2019-05-02T17:33:22.291Z,12.36
2019-05-02T17:35:54.233Z,12.44
2019-05-02T17:38:27.696Z,12.52
2019-05-02T17:40:59.075Z,12.38
2019-05-02T17:43:25.548Z,12.21
2019-05-02T17:45:56.459Z,12.32
2019-05-02T17:48:26.147Z,12.20
2019-05-02T17:51:13.595Z,12.15
2019-05-02T17:53:49.592Z,12.20
2019-05-02T17:56:20.469Z,12.17
2019-05-02T17:58:53.284Z,12.21
2019-05-02T18:01:18.078Z,12.25
2019-05-02T18:03:47.378Z,12.23
2019-05-02T18:06:17.371Z,12.44
2019-05-02T18:08:51.666Z,12.59
2019-05-02T18:11:18.335Z,12.32
2019-05-02T18:13:48.150Z,12.23
2019-05-02T18:16:17.482Z,12.37
2019-05-02T18:18:46.928Z,12.25
2019-05-02T18:21:17.726Z,12.48
2019-05-02T18:23:47.621Z,12.29
2019-05-02T18:26:16.922Z,12.55
2019-05-02T18:28:49.254Z,12.51
2019-05-02T18:31:17.390Z,12.74
2019-05-02T18:33:46.723Z,12.76
2019-05-02T18:36:17.403Z,12.93
2019-05-02T18:38:47.159Z,12.76
2019-05-02T18:41:16.482Z,12.69
2019-05-02T18:43:45.839Z,12.51
2019-05-02T18:46:15.154Z,12.70
2019-05-02T18:48:47.662Z,12.71
2019-05-02T18:51:17.584Z,12.61
2019-05-02T18:53:47.013Z,12.42
2019-05-02T18:56:16.421Z,12.53
2019-05-02T18:58:45.785Z,12.67
2019-05-02T19:01:17.836Z,12.68
2019-05-02T19:03:46.993Z,12.63
2019-05-02T19:06:17.432Z,12.55
2019-05-02T19:08:50.298Z,12.63
2019-05-02T19:11:19.555Z,12.64
2019-05-02T19:13:48.862Z,12.55
2019-05-02T19:16:19.258Z,12.57
2019-05-02T19:18:54.300Z,12.67
2019-05-02T19:21:22.007Z,12.58
2019-05-02T19:23:52.906Z,12.52
2019-05-02T19:26:22.333Z,12.53
2019-05-02T19:28:56.038Z,12.58
2019-05-02T19:31:26.540Z,12.29
2019-05-02T19:33:55.870Z,12.37
2019-05-02T19:36:27.714Z,12.41
2019-05-02T19:38:57.421Z,12.52
2019-05-02T19:41:27.415Z,12.44
2019-05-02T19:43:56.834Z,12.40
2019-05-02T19:46:34.675Z,12.38
2019-05-02T19:48:57.379Z,12.04
2019-05-02T19:51:28.159Z,12.08
2019-05-02T19:53:59.361Z,12.23
2019-05-02T19:56:33.408Z,12.38
2019-05-02T19:58:59.785Z,12.13
2019-05-02T20:01:29.230Z,12.03
2019-05-02T20:04:02.265Z,12.16
2019-05-02T20:06:30.001Z,12.43
2019-05-02T20:09:04.734Z,12.39
2019-05-02T20:11:32.933Z,12.61
2019-05-02T20:14:09.034Z,12.61
2019-05-02T20:16:36.613Z,12.41
2019-05-02T20:19:06.538Z,12.22
2019-05-02T20:21:40.371Z,12.29
2019-05-02T20:24:17.396Z,12.11
2019-05-02T20:26:41.762Z,12.04
2019-05-02T20:29:11.649Z,11.90
2019-05-02T20:31:40.947Z,12.12
2019-05-02T20:34:11.798Z,12.04
2019-05-02T20:36:42.566Z,11.86
2019-05-02T20:39:12.537Z,12.07
2019-05-02T20:41:42.085Z,11.90
2019-05-02T20:44:12.187Z,11.93
2019-05-02T20:46:42.147Z,12.04
2019-05-02T20:49:12.842Z,12.02
2019-05-02T20:51:42.543Z,12.24
2019-05-02T20:54:12.526Z,12.12
2019-05-02T20:56:42.687Z,12.38
2019-05-02T20:59:12.754Z,11.99
2019-05-02T21:01:42.921Z,11.72
2019-05-02T21:04:12.542Z,11.69
2019-05-02T21:06:55.306Z,11.93
2019-05-02T21:09:42.135Z,11.78
2019-05-02T21:12:12.597Z,11.68
2019-05-02T21:14:42.145Z,11.61
2019-05-02T21:17:12.822Z,11.72
2019-05-02T21:19:42.309Z,11.71
2019-05-02T21:22:17.526Z,11.83
2019-05-02T21:24:46.992Z,12.14
2019-05-02T21:27:16.290Z,12.07
2019-05-02T21:29:45.675Z,12.01
2019-05-02T21:32:14.994Z,11.79
2019-05-02T21:34:44.466Z,11.77
2019-05-02T21:37:14.166Z,11.64
2019-05-02T21:39:43.516Z,11.42
2019-05-02T21:42:12.958Z,11.58
2019-05-02T21:44:42.352Z,11.59
2019-05-02T21:47:11.712Z,11.63
2019-05-02T21:49:45.229Z,11.59
2019-05-02T21:52:19.054Z,11.35
2019-05-02T21:54:52.095Z,11.14
2019-05-02T21:57:22.723Z,11.12
2019-05-02T21:59:52.733Z,11.28
2019-05-02T22:02:22.599Z,11.34
2019-05-02T22:04:52.914Z,11.44
2019-05-02T22:07:22.293Z,11.33
2019-05-02T22:09:52.404Z,11.35
2019-05-02T22:12:22.520Z,11.25
2019-05-02T22:14:52.879Z,11.12
2019-05-02T22:17:22.503Z,11.25
2019-05-02T22:19:52.425Z,11.07
2019-05-02T22:22:23.853Z,11.08
2019-05-02T22:24:53.150Z,11.10
2019-05-02T22:27:22.557Z,11.03
2019-05-02T22:29:54.483Z,10.65
2019-05-02T22:32:23.005Z,10.67
2019-05-02T22:34:54.439Z,10.37
2019-05-02T22:37:24.734Z,10.59
2019-05-02T22:39:55.655Z,10.61
2019-05-02T22:42:25.002Z,10.44
2019-05-02T22:44:54.361Z,10.40
2019-05-02T22:47:23.962Z,10.25
2019-05-02T22:49:53.339Z,10.38
2019-05-02T22:52:22.836Z,10.50
2019-05-02T22:54:52.421Z,10.41
2019-05-02T22:57:22.673Z,10.37
2019-05-02T22:59:52.097Z,10.08
2019-05-02T23:02:22.279Z,10.30
2019-05-02T23:04:52.606Z,10.30
2019-05-02T23:07:23.097Z,10.07
2019-05-02T23:09:52.821Z,9.93
2019-05-02T23:12:25.046Z,9.81
2019-05-02T23:14:53.777Z,9.70
2019-05-02T23:17:23.380Z,9.81
2019-05-02T23:19:52.892Z,9.67
2019-05-02T23:22:22.341Z,9.80
2019-05-02T23:24:59.013Z,9.88
2019-05-02T23:27:31.757Z,9.90
2019-05-02T23:30:03.015Z,10.08
2019-05-02T23:32:32.304Z,10.14
2019-05-02T23:35:02.039Z,10.15
2019-05-02T23:37:32.643Z,10.12
2019-05-02T23:40:02.681Z,10.17
2019-05-02T23:42:32.293Z,10.09
2019-05-02T23:45:02.804Z,10.12
2019-05-02T23:47:33.049Z,10.24
2019-05-02T23:50:02.876Z,10.05
2019-05-02T23:52:32.981Z,10.02
2019-05-02T23:55:02.942Z,10.23
2019-05-02T23:57:32.846Z,10.05
